Terminal Aerodrome Forecast
Issued by NWS North Platte, NE

Home | Current Version | Previous Version | Text Only | Print | Product List | Glossary On
Versions: 1 2 3 4 5 6 7 8 9 10 11 12 13 14 15 16 17 18 19 20
787
FTUS43 KLBF 262326
TAFVTN
TAF
KVTN 262326Z 2700/2724 03007KT P6SM SCT050 OVC100
     FM270600 VRB03KT P6SM OVC025
     FM271100 VRB03KT P6SM OVC015
     FM271800 VRB03KT P6SM OVC025
     FM272100 14007KT P6SM OVC050=

USA.gov is the U.S. government's official web portal to all federal, state and local government web resources and services.